Time;durP1;ratioP1;P1;durP2;ratioP2;P2;SDS_P1;SDS_P2;PMS_P1;PMS_P2;Temp;Humidity;BMP_temperature;BMP_pressure;BME280_temperature;BME280_humidity;BME280_pressure;Samples;Min_cycle;Max_cycle;Signal;HPM_P1;HPM_P2
2024/03/29 00:00:56;;;;;;;;;;;;;;;22.26;46.74;92523.81;5055049;28;7039;-61
2024/03/29 00:03:22;;;;;;;;;;;;;;;22.31;46.59;92533.91;5069690;28;9042;-55
2024/03/29 00:05:50;;;;;;;;;;;;;;;22.32;46.95;92532.63;5054460;28;9071;-55
2024/03/29 00:08:20;;;;;;;;;;;;;;;22.33;46.81;92528.63;5056957;28;9435;-55
2024/03/29 00:10:47;;;;;;;;;;;;;;;22.20;46.85;92517.72;5055863;28;8095;-57
2024/03/29 00:13:42;;;;;;;;;;;;;;;22.29;46.94;92522.75;5054296;28;6867;-56
2024/03/29 00:16:11;;;;;;;;;;;;;;;22.29;46.74;92518.00;5007695;28;7235;-56
2024/03/29 00:18:41;;;;;;;;;;;;;;;22.27;46.82;92511.59;4997207;28;7040;-56
2024/03/29 00:21:36;;;;;;;;;;;;;;;22.27;46.63;92514.34;4999369;28;9316;-65
2024/03/29 00:24:15;;;;;;;;;;;;;;;22.21;46.65;92500.75;4998025;28;7242;-65
2024/03/29 00:26:42;;;;;;;;;;;;;;;22.19;46.81;92486.13;5009342;28;7318;-65
2024/03/29 00:29:18;;;;;;;;;;;;;;;22.25;46.52;92497.72;5001140;28;7000;-66
2024/03/29 00:32:17;;;;;;;;;;;;;;;22.24;46.70;92496.22;4988401;28;7030;-65
2024/03/29 00:34:46;;;;;;;;;;;;;;;22.23;47.21;92492.00;4949062;28;7020;-66
2024/03/29 00:37:12;;;;;;;;;;;;;;;22.16;47.11;92470.78;4942276;28;7124;-66
2024/03/29 00:39:40;;;;;;;;;;;;;;;22.21;46.75;92458.94;4940473;28;7846;-66
2024/03/29 00:42:12;;;;;;;;;;;;;;;22.20;46.72;92450.03;4934115;28;6991;-65
2024/03/29 00:44:47;;;;;;;;;;;;;;;22.12;46.60;92427.31;4954107;28;7248;-65
2024/03/29 00:48:01;;;;;;;;;;;;;;;22.18;46.90;92447.09;4941578;28;7013;-65
2024/03/29 00:50:39;;;;;;;;;;;;;;;22.18;46.82;92424.44;4953266;28;9435;-66
2024/03/29 00:53:19;;;;;;;;;;;;;;;22.16;47.20;92422.22;4953778;28;7023;-66
2024/03/29 00:55:47;;;;;;;;;;;;;;;22.12;46.87;92418.38;4975120;28;7299;-66
2024/03/29 00:58:26;;;;;;;;;;;;;;;22.13;46.90;92419.81;4963059;28;8983;-66
2024/03/29 01:00:53;;;;;;;;;;;;;;;22.12;46.95;92413.59;4955824;28;7016;-66
2024/03/29 01:03:44;;;;;;;;;;;;;;;22.15;46.92;92403.59;4957435;28;7023;-65
2024/03/29 01:06:10;;;;;;;;;;;;;;;22.12;46.77;92407.44;4982327;28;7642;-66
2024/03/29 01:08:36;;;;;;;;;;;;;;;22.13;46.69;92397.94;4960941;28;7004;-65
2024/03/29 01:11:01;;;;;;;;;;;;;;;22.12;46.75;92394.44;5001824;28;7257;-65
2024/03/29 01:13:37;;;;;;;;;;;;;;;22.12;46.67;92388.25;5029065;28;7303;-65
2024/03/29 01:19:34;;;;;;;;;;;;;;;22.11;46.58;92389.50;5033854;28;7003;-65
2024/03/29 01:22:02;;;;;;;;;;;;;;;22.02;46.58;92374.31;5025475;28;7052;-66
2024/03/29 01:24:48;;;;;;;;;;;;;;;22.11;46.71;92384.78;5029484;28;7283;-65
2024/03/29 01:27:23;;;;;;;;;;;;;;;22.04;46.41;92381.97;5060306;28;9099;-65
2024/03/29 01:29:59;;;;;;;;;;;;;;;22.09;46.66;92378.38;5063546;28;7025;-65
2024/03/29 01:32:26;;;;;;;;;;;;;;;22.03;46.53;92386.00;5056044;28;9465;-62
2024/03/29 01:35:29;;;;;;;;;;;;;;;22.09;46.65;92383.84;5045330;28;9422;-62
2024/03/29 01:38:23;;;;;;;;;;;;;;;22.09;46.47;92403.00;5012450;28;7256;-62
2024/03/29 01:41:12;;;;;;;;;;;;;;;22.09;46.59;92397.53;5008623;28;7067;-62
2024/03/29 01:43:55;;;;;;;;;;;;;;;22.02;46.45;92400.94;5006004;28;7372;-62
2024/03/29 01:46:23;;;;;;;;;;;;;;;22.06;46.44;92413.00;5005239;28;7051;-62
2024/03/29 01:49:13;;;;;;;;;;;;;;;22.09;46.57;92408.47;5001767;28;7106;-62
2024/03/29 01:51:50;;;;;;;;;;;;;;;22.02;46.42;92401.69;5003871;28;9171;-62
2024/03/29 01:54:42;;;;;;;;;;;;;;;22.08;46.60;92407.00;4993306;28;7184;-62
2024/03/29 01:57:18;;;;;;;;;;;;;;;22.03;46.43;92397.66;4984736;28;7140;-62
2024/03/29 02:00:14;;;;;;;;;;;;;;;22.09;46.08;92419.44;4999403;28;9739;-62
2024/03/29 02:02:59;;;;;;;;;;;;;;;22.07;46.32;92406.28;4942034;28;7341;-62
2024/03/29 02:05:26;;;;;;;;;;;;;;;22.08;46.24;92412.47;4931852;28;7081;-62
2024/03/29 02:07:57;;;;;;;;;;;;;;;22.03;46.33;92399.69;4936476;28;7280;-62
2024/03/29 02:10:23;;;;;;;;;;;;;;;22.04;46.20;92401.13;4954566;28;7060;-62
2024/03/29 02:13:04;;;;;;;;;;;;;;;22.01;46.32;92396.75;4970662;28;7124;-62
2024/03/29 02:15:53;;;;;;;;;;;;;;;22.05;46.62;92419.78;4974912;28;7245;-62
2024/03/29 02:18:29;;;;;;;;;;;;;;;22.03;45.94;92410.63;4976495;28;7724;-62
2024/03/29 02:21:10;;;;;;;;;;;;;;;21.99;46.47;92407.50;4977272;28;9056;-62
2024/03/29 02:23:47;;;;;;;;;;;;;;;22.04;46.37;92406.59;4977105;28;9562;-62
2024/03/29 02:26:46;;;;;;;;;;;;;;;22.02;45.96;92412.63;4993214;28;7046;-62
2024/03/29 02:29:14;;;;;;;;;;;;;;;22.02;46.71;92403.66;4875430;29;8985;-61
2024/03/29 02:31:43;;;;;;;;;;;;;;;22.00;46.15;92404.22;4897201;29;7242;-61
2024/03/29 02:34:11;;;;;;;;;;;;;;;22.00;46.20;92403.47;4887118;29;8335;-61
2024/03/29 02:36:43;;;;;;;;;;;;;;;21.99;46.84;92400.00;4883397;29;9072;-61
2024/03/29 02:39:12;;;;;;;;;;;;;;;21.98;46.64;92387.59;4913780;29;9065;-61
2024/03/29 02:41:38;;;;;;;;;;;;;;;21.96;46.68;92381.19;4921246;29;9123;-61
2024/03/29 02:44:23;;;;;;;;;;;;;;;21.97;46.52;92393.59;4919551;29;9502;-61
2024/03/29 02:47:00;;;;;;;;;;;;;;;21.94;46.35;92392.66;4919029;29;7414;-61
2024/03/29 02:49:26;;;;;;;;;;;;;;;21.97;46.29;92397.06;4934779;29;7158;-61
2024/03/29 02:52:17;;;;;;;;;;;;;;;21.96;46.08;92392.13;4919035;29;7274;-61
2024/03/29 02:54:59;;;;;;;;;;;;;;;21.89;46.11;92388.06;4931901;29;7608;-61
2024/03/29 02:57:57;;;;;;;;;;;;;;;21.92;46.12;92403.41;4918936;29;7082;-61
2024/03/29 03:01:11;;;;;;;;;;;;;;;21.94;46.01;92419.31;4896768;29;7378;-61
2024/03/29 03:03:51;;;;;;;;;;;;;;;21.87;46.29;92407.00;4882725;28;9030;-61
2024/03/29 03:06:30;;;;;;;;;;;;;;;21.93;46.00;92417.81;4974952;28;9395;-61
2024/03/29 03:11:46;;;;;;;;;;;;;;;21.88;45.84;92403.00;4973023;28;9294;-61
2024/03/29 03:14:13;;;;;;;;;;;;;;;21.92;46.09;92414.38;4953971;28;9112;-61
2024/03/29 03:16:52;;;;;;;;;;;;;;;21.84;46.33;92410.81;4963917;28;8887;-61
2024/03/29 03:19:28;;;;;;;;;;;;;;;21.89;45.96;92420.91;4938004;29;9271;-61
2024/03/29 03:22:03;;;;;;;;;;;;;;;21.90;46.17;92425.09;4968036;28;7000;-61
2024/03/29 03:25:04;;;;;;;;;;;;;;;21.90;46.10;92425.09;4958499;28;7025;-61
2024/03/29 03:27:41;;;;;;;;;;;;;;;21.91;46.11;92440.25;4930695;29;8793;-60
2024/03/29 03:30:24;;;;;;;;;;;;;;;21.90;46.26;92416.88;4937082;28;7125;-61
2024/03/29 03:33:03;;;;;;;;;;;;;;;21.83;46.58;92427.78;4930812;28;8182;-61
2024/03/29 03:35:30;;;;;;;;;;;;;;;21.85;46.11;92419.75;4941305;28;7495;-61
2024/03/29 03:37:59;;;;;;;;;;;;;;;21.88;46.49;92413.94;4947755;28;6868;-61
2024/03/29 03:40:24;;;;;;;;;;;;;;;21.81;46.51;92408.38;4966092;28;9421;-61
2024/03/29 03:42:55;;;;;;;;;;;;;;;21.78;46.08;92399.25;4974421;28;9034;-61
2024/03/29 03:45:24;;;;;;;;;;;;;;;21.87;46.19;92400.81;4979986;28;9145;-62
2024/03/29 03:47:50;;;;;;;;;;;;;;;21.85;46.43;92423.22;4981459;28;9435;-61
2024/03/29 03:50:23;;;;;;;;;;;;;;;21.87;46.16;92414.47;4993115;28;7039;-61
2024/03/29 03:52:58;;;;;;;;;;;;;;;21.86;46.11;92426.72;4979678;28;7288;-65
2024/03/29 03:56:10;;;;;;;;;;;;;;;21.85;46.34;92427.97;4968497;28;8640;-65
2024/03/29 03:58:53;;;;;;;;;;;;;;;21.88;45.94;92435.84;4965412;28;7046;-65
2024/03/29 04:01:28;;;;;;;;;;;;;;;21.86;46.21;92421.94;4967721;28;9173;-65
2024/03/29 04:04:05;;;;;;;;;;;;;;;21.86;46.40;92419.22;5032615;28;7337;-65
2024/03/29 04:07:08;;;;;;;;;;;;;;;21.84;46.05;92410.06;5023860;28;7262;-65
2024/03/29 04:09:34;;;;;;;;;;;;;;;21.77;46.58;92406.69;5019403;28;8872;-65
2024/03/29 04:12:00;;;;;;;;;;;;;;;21.78;46.52;92410.91;5023515;28;7039;-65
2024/03/29 04:14:28;;;;;;;;;;;;;;;21.82;45.80;92410.56;5029933;28;7657;-65
2024/03/29 04:16:54;;;;;;;;;;;;;;;21.82;46.25;92427.00;5022447;28;7398;-65
2024/03/29 04:19:30;;;;;;;;;;;;;;;21.78;46.50;92413.66;5029631;28;7233;-65
2024/03/29 04:22:17;;;;;;;;;;;;;;;21.77;46.44;92406.69;5018077;28;7301;-65
2024/03/29 04:25:21;;;;;;;;;;;;;;;21.84;45.79;92423.75;4999151;28;7922;-65
2024/03/29 04:28:21;;;;;;;;;;;;;;;21.84;46.24;92404.59;5033708;28;7235;-65
2024/03/29 04:31:33;;;;;;;;;;;;;;;21.83;46.38;92397.66;4943623;28;7265;-65
2024/03/29 04:34:12;;;;;;;;;;;;;;;21.82;46.37;92393.41;4920442;29;7098;-65
2024/03/29 04:36:49;;;;;;;;;;;;;;;21.83;46.16;92383.97;4899441;29;7326;-65
2024/03/29 04:39:29;;;;;;;;;;;;;;;21.77;45.86;92375.88;4898169;29;7035;-66
2024/03/29 04:42:04;;;;;;;;;;;;;;;21.83;45.84;92378.50;4900265;29;7072;-65
2024/03/29 04:44:51;;;;;;;;;;;;;;;21.83;45.91;92378.50;4899017;29;6916;-66
2024/03/29 04:47:18;;;;;;;;;;;;;;;21.83;46.46;92383.97;4899087;29;7044;-65
2024/03/29 04:50:17;;;;;;;;;;;;;;;21.81;46.03;92381.03;4913998;29;9132;-65
2024/03/29 04:52:58;;;;;;;;;;;;;;;21.79;46.09;92397.97;4864414;29;7005;-65
2024/03/29 04:55:27;;;;;;;;;;;;;;;21.84;45.79;92416.28;4879752;29;9036;-66
2024/03/29 04:58:11;;;;;;;;;;;;;;;21.81;46.00;92454.91;4875149;29;7251;-66
2024/03/29 05:00:46;;;;;;;;;;;;;;;21.82;45.99;92472.78;4870209;29;7163;-65
2024/03/29 05:03:23;;;;;;;;;;;;;;;21.89;46.02;92477.63;4871419;29;7159;-55
2024/03/29 05:06:01;;;;;;;;;;;;;;;21.88;46.05;92481.66;4881767;28;7242;-55
2024/03/29 05:08:26;;;;;;;;;;;;;;;21.84;45.81;92470.28;4938267;28;8642;-55
2024/03/29 05:10:54;;;;;;;;;;;;;;;21.89;45.80;92488.56;4953868;28;8009;-55
2024/03/29 05:13:22;;;;;;;;;;;;;;;21.90;46.10;92481.84;4993503;28;7000;-55
2024/03/29 05:15:48;;;;;;;;;;;;;;;21.87;46.04;92467.22;4996273;28;9160;-55
2024/03/29 05:18:30;;;;;;;;;;;;;;;21.84;45.94;92467.53;4985191;28;7190;-55
2024/03/29 05:21:05;;;;;;;;;;;;;;;21.88;46.12;92457.72;4988106;28;7218;-55
2024/03/29 05:23:45;;;;;;;;;;;;;;;21.84;45.65;92459.31;5011798;28;9376;-55
2024/03/29 05:26:12;;;;;;;;;;;;;;;21.87;45.89;92471.94;4974735;28;7339;-55
2024/03/29 05:28:57;;;;;;;;;;;;;;;21.86;46.25;92452.06;5008348;28;7302;-56
2024/03/29 05:31:48;;;;;;;;;;;;;;;21.99;46.24;92443.06;5069234;28;7035;-55
2024/03/29 05:34:22;;;;;;;;;;;;;;;22.06;46.16;92456.06;5056335;28;7286;-54
2024/03/29 05:37:02;;;;;;;;;;;;;;;22.12;46.20;92451.22;5059786;28;7134;-54
2024/03/29 05:39:37;;;;;;;;;;;;;;;22.13;45.91;92449.94;5065836;28;9541;-54
2024/03/29 05:42:34;;;;;;;;;;;;;;;22.16;45.65;92444.13;5069406;28;9258;-55
2024/03/29 05:45:04;;;;;;;;;;;;;;;22.17;45.73;92472.25;5069228;28;7048;-54
2024/03/29 05:47:36;;;;;;;;;;;;;;;22.14;45.76;92467.84;5050657;28;7039;-55
2024/03/29 05:50:05;;;;;;;;;;;;;;;22.19;45.84;92464.22;5040796;28;7170;-54
2024/03/29 05:52:35;;;;;;;;;;;;;;;22.19;45.96;92454.00;5062244;28;7018;-55
2024/03/29 05:55:16;;;;;;;;;;;;;;;22.13;45.59;92456.16;5053709;28;7246;-54
2024/03/29 05:58:17;;;;;;;;;;;;;;;22.23;45.81;92473.56;5066171;28;7854;-54
2024/03/29 06:00:45;;;;;;;;;;;;;;;22.15;45.74;92453.63;4996348;28;7038;-55
2024/03/29 06:03:45;;;;;;;;;;;;;;;22.24;45.99;92466.09;5006466;28;9201;-63
2024/03/29 06:06:24;;;;;;;;;;;;;;;22.25;45.75;92476.53;5002756;28;7051;-63
2024/03/29 06:08:51;;;;;;;;;;;;;;;22.23;45.74;92470.09;5012452;28;7573;-64
2024/03/29 06:11:17;;;;;;;;;;;;;;;22.29;45.57;92473.47;4988127;28;7320;-64
2024/03/29 06:19:15;;;;;;;;;;;;;;;22.38;45.64;92475.72;5004781;28;7134;-64
2024/03/29 06:21:42;;;;;;;;;;;;;;;22.36;45.42;92472.78;4988289;28;7031;-64
2024/03/29 06:24:21;;;;;;;;;;;;;;;22.41;45.37;92469.16;5003135;28;6997;-63
2024/03/29 06:26:47;;;;;;;;;;;;;;;22.37;45.23;92468.78;5006771;28;6932;-63
2024/03/29 06:29:17;;;;;;;;;;;;;;;22.42;45.19;92463.16;5011769;28;7290;-64
2024/03/29 06:32:01;;;;;;;;;;;;;;;22.38;45.57;92464.75;5006467;28;7387;-64
2024/03/29 06:34:57;;;;;;;;;;;;;;;22.44;45.26;92460.59;5008252;28;7111;-64
2024/03/29 06:37:43;;;;;;;;;;;;;;;22.46;45.33;92449.13;4988629;28;9367;-64
2024/03/29 06:40:19;;;;;;;;;;;;;;;22.46;45.49;92421.75;4996248;28;7584;-64
2024/03/29 06:43:16;;;;;;;;;;;;;;;22.48;45.37;92441.84;4990448;28;7096;-64
2024/03/29 06:45:44;;;;;;;;;;;;;;;22.50;45.69;92441.31;4934299;29;7272;-64
2024/03/29 06:48:14;;;;;;;;;;;;;;;22.49;44.69;92453.53;4940772;28;9070;-64
2024/03/29 06:50:49;;;;;;;;;;;;;;;22.53;45.06;92442.97;4944140;28;7106;-64
2024/03/29 06:53:16;;;;;;;;;;;;;;;22.46;45.10;92452.63;4933237;28;10335;-64
2024/03/29 06:55:49;;;;;;;;;;;;;;;22.53;44.96;92465.63;4934254;29;7819;-64
2024/03/29 06:58:16;;;;;;;;;;;;;;;22.53;44.85;92432.03;4934403;29;7553;-64
2024/03/29 07:01:00;;;;;;;;;;;;;;;22.53;45.09;92437.50;4933832;29;8099;-64
2024/03/29 07:03:36;;;;;;;;;;;;;;;22.57;45.23;92437.16;4934757;29;7041;-64
2024/03/29 07:06:12;;;;;;;;;;;;;;;22.60;45.09;92431.34;4931796;29;7546;-65
2024/03/29 07:08:38;;;;;;;;;;;;;;;22.62;45.14;92417.13;4934196;29;7370;-64
2024/03/29 07:11:04;;;;;;;;;;;;;;;22.58;45.16;92427.66;4934147;29;7289;-55
2024/03/29 07:13:33;;;;;;;;;;;;;;;22.64;45.23;92414.59;4948795;28;7042;-55
2024/03/29 07:16:00;;;;;;;;;;;;;;;22.65;45.26;92405.81;4970547;28;7038;-55
2024/03/29 07:18:27;;;;;;;;;;;;;;;22.64;45.20;92392.66;4968321;28;7594;-55
2024/03/29 07:21:02;;;;;;;;;;;;;;;22.70;45.52;92407.69;4972668;28;7283;-56
2024/03/29 07:23:29;;;;;;;;;;;;;;;22.67;45.37;92381.34;5043080;28;7125;-56
2024/03/29 07:26:05;;;;;;;;;;;;;;;22.68;45.58;92385.56;5038578;28;7031;-60
2024/03/29 07:28:36;;;;;;;;;;;;;;;22.79;45.79;92381.78;5067252;28;9722;-57
2024/03/29 07:31:10;;;;;;;;;;;;;;;22.80;45.69;92359.31;5070938;28;9666;-56
2024/03/29 07:33:37;;;;;;;;;;;;;;;22.74;45.30;92358.75;5060054;28;9117;-56
2024/03/29 07:36:10;;;;;;;;;;;;;;;22.78;44.24;92361.88;5057845;28;7102;-57
2024/03/29 07:38:45;;;;;;;;;;;;;;;22.69;42.88;92345.91;5064409;28;7255;-57
2024/03/29 07:41:25;;;;;;;;;;;;;;;22.61;43.95;92331.44;5046618;28;9032;-56
2024/03/29 07:43:53;;;;;;;;;;;;;;;22.61;43.47;92358.13;5048306;28;7103;-56
2024/03/29 07:46:23;;;;;;;;;;;;;;;22.69;44.05;92354.13;5054750;28;7049;-57
2024/03/29 07:49:04;;;;;;;;;;;;;;;22.70;43.88;92341.19;5067105;28;7161;-58
2024/03/29 07:51:35;;;;;;;;;;;;;;;22.73;44.08;92345.59;5037808;28;7064;-57
2024/03/29 07:54:15;;;;;;;;;;;;;;;22.76;44.22;92356.19;5037102;28;7258;-57
2024/03/29 07:56:47;;;;;;;;;;;;;;;22.74;43.74;92350.53;5059376;28;7045;-59
2024/03/29 07:59:19;;;;;;;;;;;;;;;22.73;43.80;92346.31;5054651;28;7091;-59
2024/03/29 08:01:46;;;;;;;;;;;;;;;22.75;44.11;92343.75;5061471;28;9279;-60
2024/03/29 08:04:12;;;;;;;;;;;;;;;22.75;44.16;92356.75;5059139;28;7106;-59
2024/03/29 08:06:40;;;;;;;;;;;;;;;22.82;43.78;92367.00;5045847;28;7138;-57
2024/03/29 08:09:09;;;;;;;;;;;;;;;22.81;43.68;92384.72;5055473;28;9136;-57
2024/03/29 08:11:37;;;;;;;;;;;;;;;22.74;43.71;92375.19;5053256;28;7246;-56
2024/03/29 08:14:03;;;;;;;;;;;;;;;22.77;43.33;92379.56;5067452;28;9137;-57
2024/03/29 08:16:29;;;;;;;;;;;;;;;22.78;43.58;92381.06;5070395;28;7363;-57
2024/03/29 08:19:29;;;;;;;;;;;;;;;22.78;43.77;92392.00;5075319;28;8895;-57
2024/03/29 08:21:55;;;;;;;;;;;;;;;22.77;43.93;92385.06;5051779;28;7881;-57
2024/03/29 08:24:52;;;;;;;;;;;;;;;22.79;43.34;92392.75;5058780;28;7731;-56
2024/03/29 08:27:34;;;;;;;;;;;;;;;22.80;43.63;92400.44;5013746;28;7018;-57
2024/03/29 08:30:05;;;;;;;;;;;;;;;22.76;43.62;92404.78;5013111;28;7068;-57
2024/03/29 08:32:41;;;;;;;;;;;;;;;22.83;43.70;92415.81;5005684;28;7633;-57
2024/03/29 08:35:08;;;;;;;;;;;;;;;22.87;43.82;92424.41;5010126;28;7037;-57
2024/03/29 08:37:35;;;;;;;;;;;;;;;22.85;43.78;92418.00;5004847;28;7557;-57
2024/03/29 08:40:01;;;;;;;;;;;;;;;22.84;43.69;92414.50;5010430;28;8999;-57
2024/03/29 08:42:28;;;;;;;;;;;;;;;22.92;43.83;92433.75;5008098;28;7226;-57
2024/03/29 08:44:59;;;;;;;;;;;;;;;22.96;44.44;92442.38;4995997;28;7229;-59
2024/03/29 08:47:40;;;;;;;;;;;;;;;23.07;43.54;92429.09;5004897;28;6927;-57
2024/03/29 08:50:30;;;;;;;;;;;;;;;23.15;43.24;92429.84;4991018;28;7044;-57
2024/03/29 08:53:16;;;;;;;;;;;;;;;23.22;43.53;92440.13;5012214;28;7406;-57
2024/03/29 08:55:46;;;;;;;;;;;;;;;23.24;43.61;92431.34;5010993;28;7228;-57
2024/03/29 08:58:29;;;;;;;;;;;;;;;23.37;42.93;92436.75;5012695;28;7211;-57
2024/03/29 09:01:19;;;;;;;;;;;;;;;23.38;42.84;92442.97;5007590;28;7247;-58
2024/03/29 09:03:46;;;;;;;;;;;;;;;23.37;43.45;92441.50;5033050;28;7429;-57
2024/03/29 09:06:14;;;;;;;;;;;;;;;23.39;43.35;92444.41;5062772;28;7605;-57
2024/03/29 09:08:40;;;;;;;;;;;;;;;23.40;43.38;92459.63;5065661;28;7299;-57
2024/03/29 09:11:06;;;;;;;;;;;;;;;23.39;43.31;92464.38;5075644;28;7050;-56
2024/03/29 09:13:34;;;;;;;;;;;;;;;23.38;43.49;92457.41;5053743;28;7012;-57
2024/03/29 09:16:00;;;;;;;;;;;;;;;23.37;43.41;92474.41;5066579;28;7033;-57
2024/03/29 09:18:41;;;;;;;;;;;;;;;23.36;43.45;92478.44;5066660;28;9483;-57
2024/03/29 09:21:08;;;;;;;;;;;;;;;23.32;43.45;92486.22;5067486;28;7307;-57
2024/03/29 09:23:41;;;;;;;;;;;;;;;23.37;43.73;92471.66;5068104;28;9004;-57
2024/03/29 09:26:22;;;;;;;;;;;;;;;23.41;43.02;92475.53;5063573;28;7058;-56
2024/03/29 09:28:55;;;;;;;;;;;;;;;23.46;42.21;92468.41;5065421;28;7520;-56
2024/03/29 09:31:27;;;;;;;;;;;;;;;23.33;42.43;92463.78;5048925;28;7026;-57
2024/03/29 09:33:57;;;;;;;;;;;;;;;23.27;42.96;92473.44;5069708;28;9450;-57
2024/03/29 09:36:43;;;;;;;;;;;;;;;23.33;43.71;92484.97;5062512;28;7038;-57
2024/03/29 09:39:10;;;;;;;;;;;;;;;23.36;43.70;92478.44;5064424;28;7132;-57
2024/03/29 09:41:41;;;;;;;;;;;;;;;23.38;45.17;92473.16;5061718;28;7373;-56
2024/03/29 09:44:18;;;;;;;;;;;;;;;23.42;45.61;92468.78;5071123;28;9344;-57
2024/03/29 09:46:56;;;;;;;;;;;;;;;23.45;46.28;92459.44;5062080;28;7092;-57
2024/03/29 09:49:28;;;;;;;;;;;;;;;23.50;46.40;92457.81;5056644;28;9343;-57
2024/03/29 09:51:55;;;;;;;;;;;;;;;23.44;46.54;92451.75;5059031;28;9028;-57
2024/03/29 09:54:29;;;;;;;;;;;;;;;23.50;46.14;92449.59;5055691;28;7329;-57
2024/03/29 09:57:00;;;;;;;;;;;;;;;23.47;46.25;92447.94;5039012;28;7096;-57
2024/03/29 09:59:35;;;;;;;;;;;;;;;23.47;46.59;92456.88;5063634;28;7477;-57
2024/03/29 10:02:26;;;;;;;;;;;;;;;23.44;46.00;92447.03;5068446;28;9388;-58
2024/03/29 10:05:20;;;;;;;;;;;;;;;23.44;46.30;92460.00;5047207;28;9236;-57
2024/03/29 10:07:46;;;;;;;;;;;;;;;23.39;47.03;92441.69;4983490;28;6858;-57
2024/03/29 10:10:14;;;;;;;;;;;;;;;23.40;46.71;92438.41;4990910;28;9058;-57
2024/03/29 10:12:40;;;;;;;;;;;;;;;23.40;47.14;92437.66;4983237;28;7039;-57
2024/03/29 10:15:28;;;;;;;;;;;;;;;23.39;46.77;92436.19;4993011;28;9143;-58
2024/03/29 10:17:54;;;;;;;;;;;;;;;23.40;47.37;92438.41;4974451;28;7049;-57
2024/03/29 10:21:02;;;;;;;;;;;;;;;23.41;46.92;92428.16;4970862;28;7189;-57
2024/03/29 10:23:29;;;;;;;;;;;;;;;23.39;46.44;92425.97;4944010;28;7261;-57
2024/03/29 10:26:25;;;;;;;;;;;;;;;23.33;46.06;92427.38;4958041;28;8580;-57
2024/03/29 10:29:22;;;;;;;;;;;;;;;23.27;45.44;92426.81;4916387;29;7265;-58
2024/03/29 10:31:49;;;;;;;;;;;;;;;23.21;45.26;92419.47;4836186;29;7042;-58
2024/03/29 10:34:36;;;;;;;;;;;;;;;23.15;45.05;92418.88;4856780;29;7113;-58
2024/03/29 10:37:12;;;;;;;;;;;;;;;23.06;44.94;92419.38;4855462;29;7326;-58
2024/03/29 10:40:18;;;;;;;;;;;;;;;23.01;44.50;92428.50;4833129;29;9226;-61
2024/03/29 10:42:57;;;;;;;;;;;;;;;22.92;45.30;92426.25;4795820;29;7308;-67
2024/03/29 10:45:46;;;;;;;;;;;;;;;22.99;46.30;92431.03;5120545;27;6672;-66
2024/03/29 10:48:15;;;;;;;;;;;;;;;23.04;47.48;92435.66;5069962;28;7277;-61
2024/03/29 10:50:43;;;;;;;;;;;;;;;23.19;48.09;92422.00;5061489;28;7239;-63
2024/03/29 10:53:15;;;;;;;;;;;;;;;23.38;63.93;92429.97;5084041;28;9292;-63
2024/03/29 10:55:57;;;;;;;;;;;;;;;23.85;66.89;92427.56;5070447;28;9068;-64
2024/03/29 10:59:11;;;;;;;;;;;;;;;24.38;65.76;92416.63;5085279;28;10449;-62
2024/03/29 11:01:56;;;;;;;;;;;;;;;24.70;64.56;92429.81;5039941;28;7038;-63
2024/03/29 11:04:33;;;;;;;;;;;;;;;24.81;50.71;92415.00;5027751;28;9160;-63
2024/03/29 11:07:23;;;;;;;;;;;;;;;24.89;46.09;92410.19;5011658;28;7261;-63
2024/03/29 11:10:24;;;;;;;;;;;;;;;24.92;46.61;92400.84;5011989;28;7168;-63
2024/03/29 11:13:03;;;;;;;;;;;;;;;24.94;47.98;92412.78;5011838;28;7057;-64
2024/03/29 11:15:41;;;;;;;;;;;;;;;24.39;45.23;92395.41;5041177;28;7325;-64
2024/03/29 11:18:24;;;;;;;;;;;;;;;23.51;43.28;92394.16;5009183;28;7376;-64
2024/03/29 11:21:30;;;;;;;;;;;;;;;23.10;44.41;92389.59;5017874;28;7292;-64
2024/03/29 11:24:08;;;;;;;;;;;;;;;22.86;44.60;92370.84;4966493;28;8784;-64
2024/03/29 11:26:35;;;;;;;;;;;;;;;22.71;44.92;92392.69;4928089;29;7885;-63
2024/03/29 11:29:35;;;;;;;;;;;;;;;22.56;43.79;92376.13;4949123;28;8960;-64
2024/03/29 11:32:04;;;;;;;;;;;;;;;22.51;44.31;92393.44;4916032;29;7096;-64
2024/03/29 11:34:34;;;;;;;;;;;;;;;22.38;44.15;92366.91;4950467;29;8842;-64
2024/03/29 11:37:15;;;;;;;;;;;;;;;22.43;44.33;92395.41;4949811;29;9311;-64
2024/03/29 11:40:14;;;;;;;;;;;;;;;22.40;43.95;92380.78;4933832;29;7260;-64
2024/03/29 11:42:57;;;;;;;;;;;;;;;22.38;43.84;92369.63;4911196;29;7104;-64
2024/03/29 11:45:34;;;;;;;;;;;;;;;22.42;44.81;92377.53;4914234;29;7907;-64
2024/03/29 11:48:07;;;;;;;;;;;;;;;22.32;44.00;92365.56;4929683;29;7112;-64
2024/03/29 11:50:35;;;;;;;;;;;;;;;22.37;44.78;92381.13;4929843;29;7283;-64
2024/03/29 11:53:05;;;;;;;;;;;;;;;22.31;43.66;92384.03;4909867;29;7063;-59
2024/03/29 11:55:34;;;;;;;;;;;;;;;22.22;43.80;92370.06;4968446;28;7205;-58
2024/03/29 11:58:00;;;;;;;;;;;;;;;22.34;44.71;92366.50;4957052;28;7146;-59
2024/03/29 12:00:45;;;;;;;;;;;;;;;22.37;43.94;92381.13;4956294;28;6996;-59
2024/03/29 12:03:14;;;;;;;;;;;;;;;22.36;43.14;92369.44;4974375;28;7120;-59
2024/03/29 12:05:46;;;;;;;;;;;;;;;22.37;43.93;92370.19;4958906;28;9921;-58
2024/03/29 12:08:31;;;;;;;;;;;;;;;22.42;42.89;92386.44;4981557;28;9203;-58
2024/03/29 12:11:45;;;;;;;;;;;;;;;22.46;43.20;92373.19;4994954;28;7045;-58
2024/03/29 12:14:37;;;;;;;;;;;;;;;22.48;42.51;92367.16;4938655;28;7300;-59
2024/03/29 12:17:18;;;;;;;;;;;;;;;22.49;42.43;92377.56;4955134;28;9094;-59
2024/03/29 12:19:48;;;;;;;;;;;;;;;22.48;42.33;92362.41;4992138;28;9401;-59
2024/03/29 12:22:49;;;;;;;;;;;;;;;22.52;42.09;92383.97;4987682;28;7460;-58
2024/03/29 12:25:25;;;;;;;;;;;;;;;22.49;41.73;92366.59;5001970;28;9082;-58
2024/03/29 12:27:58;;;;;;;;;;;;;;;22.52;41.82;92360.06;4990312;28;7289;-58
2024/03/29 12:30:25;;;;;;;;;;;;;;;22.45;41.85;92362.75;4993323;28;6980;-58
2024/03/29 12:33:19;;;;;;;;;;;;;;;22.58;41.21;92367.38;4991403;28;9495;-58
2024/03/29 12:35:53;;;;;;;;;;;;;;;22.63;42.34;92383.72;4988854;28;7241;-58
2024/03/29 12:38:21;;;;;;;;;;;;;;;22.65;40.76;92380.41;4989889;28;9058;-60
2024/03/29 12:40:52;;;;;;;;;;;;;;;22.67;42.35;92381.34;4990649;28;9018;-60
2024/03/29 12:43:22;;;;;;;;;;;;;;;22.68;41.82;92382.84;4990983;28;7417;-60
2024/03/29 12:45:53;;;;;;;;;;;;;;;22.70;41.19;92395.97;4975475;28;8669;-60
2024/03/29 12:48:23;;;;;;;;;;;;;;;22.61;41.04;92378.03;4975593;28;6909;-60
2024/03/29 12:50:53;;;;;;;;;;;;;;;22.67;41.96;92378.59;5013770;28;8880;-59
2024/03/29 12:53:22;;;;;;;;;;;;;;;22.55;41.84;92368.47;5032819;28;8948;-59
2024/03/29 12:55:49;;;;;;;;;;;;;;;22.61;41.75;92378.03;5029181;28;7248;-59
2024/03/29 12:58:22;;;;;;;;;;;;;;;22.51;41.90;92366.78;5046864;28;9172;-59
2024/03/29 13:00:48;;;;;;;;;;;;;;;22.47;41.83;92374.63;5025820;28;9441;-59
2024/03/29 13:03:16;;;;;;;;;;;;;;;22.38;41.99;92375.09;5056863;28;9489;-59
2024/03/29 13:05:43;;;;;;;;;;;;;;;22.33;42.10;92354.09;5044113;28;7422;-59
2024/03/29 13:08:19;;;;;;;;;;;;;;;22.29;41.61;92375.59;5026274;28;8103;-59
2024/03/29 13:10:46;;;;;;;;;;;;;;;22.32;41.83;92398.44;5032242;28;7612;-59
2024/03/29 13:13:18;;;;;;;;;;;;;;;22.28;42.65;92378.88;5030442;28;7150;-59
2024/03/29 13:15:47;;;;;;;;;;;;;;;22.29;42.17;92396.78;5043851;28;7084;-59
2024/03/29 13:18:18;;;;;;;;;;;;;;;22.22;42.14;92398.19;5027865;28;9456;-59
2024/03/29 13:20:46;;;;;;;;;;;;;;;22.22;42.78;92408.41;5029355;28;7963;-59
2024/03/29 13:23:13;;;;;;;;;;;;;;;22.16;42.31;92400.31;5027735;28;7061;-59
2024/03/29 13:25:39;;;;;;;;;;;;;;;22.19;42.74;92395.78;5026154;28;8837;-59
2024/03/29 13:28:07;;;;;;;;;;;;;;;22.12;42.43;92380.03;5030853;28;9376;-59
2024/03/29 13:30:33;;;;;;;;;;;;;;;22.17;42.59;92388.09;5045151;28;9410;-59
2024/03/29 13:33:01;;;;;;;;;;;;;;;22.16;42.69;92403.06;5027488;28;9007;-59
2024/03/29 13:35:28;;;;;;;;;;;;;;;22.13;42.19;92376.75;5045747;28;7309;-59
2024/03/29 13:38:06;;;;;;;;;;;;;;;22.18;42.32;92399.81;5026937;28;6960;-59
2024/03/29 13:40:33;;;;;;;;;;;;;;;22.21;41.87;92404.19;5030526;28;7087;-59
2024/03/29 13:43:26;;;;;;;;;;;;;;;22.19;42.37;92406.72;5032904;28;7115;-59
2024/03/29 13:45:52;;;;;;;;;;;;;;;22.20;41.61;92410.94;4971255;28;7072;-59
2024/03/29 13:48:18;;;;;;;;;;;;;;;22.19;41.97;92412.22;4955808;28;7572;-59
2024/03/29 13:50:44;;;;;;;;;;;;;;;22.11;41.75;92411.41;4959981;28;7315;-59
2024/03/29 13:53:38;;;;;;;;;;;;;;;22.19;42.24;92406.72;4971828;28;8729;-59
2024/03/29 13:56:22;;;;;;;;;;;;;;;22.15;41.52;92400.88;4953843;28;7071;-59
2024/03/29 13:58:59;;;;;;;;;;;;;;;22.15;42.11;92414.56;4956458;28;8733;-59